createdAt,value
2023-02-05T02:23:00.201Z,0.79
2023-02-05T02:24:00.172Z,0.75
2023-02-05T02:25:00.145Z,0.74
2023-02-05T02:26:00.097Z,0.77
2023-02-05T02:27:00.069Z,0.76
2023-02-05T02:28:00.033Z,0.75
2023-02-05T02:28:59.952Z,0.76
2023-02-05T02:29:59.894Z,0.75
2023-02-05T02:30:59.978Z,0.76
2023-02-05T02:31:59.814Z,0.77
2023-02-05T02:32:59.773Z,0.75
2023-02-05T02:33:59.731Z,0.76
2023-02-05T02:34:59.687Z,0.76
2023-02-05T02:35:59.666Z,0.76
2023-02-05T02:36:59.606Z,0.74
2023-02-05T02:37:59.555Z,0.74
2023-02-05T02:38:59.510Z,0.76
2023-02-05T02:39:59.473Z,0.75
2023-02-05T02:40:59.424Z,0.76
2023-02-05T02:41:59.390Z,0.75
2023-02-05T02:42:59.339Z,0.76
2023-02-05T02:43:59.329Z,0.75
2023-02-05T02:44:59.263Z,0.75
2023-02-05T02:45:59.218Z,0.75
2023-02-05T02:46:59.171Z,0.74
2023-02-05T02:47:59.137Z,0.74
2023-02-05T02:48:59.097Z,0.74
2023-02-05T02:49:59.064Z,0.73
2023-02-05T02:50:59.028Z,0.74
2023-02-05T02:51:58.988Z,0.75
2023-02-05T02:52:58.961Z,0.75
2023-02-05T02:53:58.911Z,0.75
2023-02-05T02:54:58.865Z,0.75
2023-02-05T02:55:58.830Z,0.73
2023-02-05T02:56:58.792Z,0.73
2023-02-05T02:57:58.758Z,0.75
2023-02-05T02:58:58.738Z,0.74
2023-02-05T02:59:58.695Z,0.74
2023-02-05T03:00:58.692Z,0.74
2023-02-05T03:01:58.598Z,0.75
2023-02-05T03:02:58.568Z,0.75
2023-02-05T03:03:58.718Z,0.73
2023-02-05T03:04:58.491Z,0.75
2023-02-05T03:05:58.456Z,0.74
2023-02-05T03:06:58.422Z,0.75
2023-02-05T03:07:58.391Z,0.73
2023-02-05T03:08:58.361Z,0.73
2023-02-05T03:09:58.333Z,0.74
2023-02-05T03:10:58.284Z,0.74
2023-02-05T03:11:58.249Z,0.72
2023-02-05T03:12:58.232Z,0.73
2023-02-05T03:13:58.222Z,0.74
2023-02-05T03:14:58.166Z,0.74
2023-02-05T03:15:58.190Z,0.75
2023-02-05T03:16:58.081Z,0.75
2023-02-05T03:17:58.057Z,0.74
2023-02-05T03:18:58.017Z,0.73
2023-02-05T03:19:57.994Z,0.73
2023-02-05T03:20:57.955Z,0.72
2023-02-05T03:21:57.929Z,0.73
2023-02-05T03:22:57.874Z,0.73
2023-02-05T03:23:57.827Z,0.73
2023-02-05T03:33:57.507Z,0.72
2023-02-05T03:34:57.489Z,0.73
2023-02-05T03:35:57.440Z,0.73
2023-02-05T03:36:57.407Z,0.72
2023-02-05T03:37:57.386Z,0.74
2023-02-05T03:38:57.346Z,0.73
2023-02-05T03:39:57.301Z,0.74
2023-02-05T03:40:57.274Z,0.73
2023-02-05T03:41:57.292Z,0.72
2023-02-05T03:42:57.207Z,0.73
2023-02-05T03:43:57.168Z,0.72
2023-02-05T03:44:57.130Z,0.73
2023-02-05T03:45:57.109Z,0.73
2023-02-05T03:46:57.045Z,0.72
2023-02-05T03:47:57.021Z,0.72
2023-02-05T03:48:56.975Z,0.73
2023-02-05T03:49:56.957Z,0.72
2023-02-05T03:50:56.937Z,0.73
2023-02-05T03:51:56.874Z,0.72
2023-02-05T03:52:56.818Z,0.73
2023-02-05T03:54:56.752Z,0.73
2023-02-05T03:55:56.705Z,0.72
2023-02-05T03:56:56.676Z,0.73
2023-02-05T03:57:56.626Z,0.72
2023-02-05T03:58:56.598Z,0.73
2023-02-05T03:59:56.548Z,0.72
2023-02-05T04:00:56.572Z,0.72
2023-02-05T04:01:56.511Z,0.72
2023-02-05T04:02:56.447Z,0.72
2023-02-05T04:03:56.415Z,0.73
2023-02-05T04:04:56.385Z,0.72
2023-02-05T04:05:56.368Z,0.71
2023-02-05T04:06:56.320Z,0.72
2023-02-05T04:07:56.278Z,0.72
2023-02-05T04:08:56.256Z,0.73
2023-02-05T04:09:56.213Z,0.72
2023-02-05T04:10:56.179Z,0.72
2023-02-05T04:11:56.134Z,0.71
2023-02-05T04:12:56.098Z,0.72
2023-02-05T04:13:56.077Z,0.72
2023-02-05T04:14:56.027Z,0.71
2023-02-05T04:15:56.009Z,0.72
2023-02-05T04:16:55.968Z,0.71
2023-02-05T04:17:55.932Z,0.72
2023-02-05T04:18:55.895Z,0.72
2023-02-05T04:19:55.859Z,0.72
2023-02-05T04:20:55.908Z,0.72
2023-02-05T04:21:55.796Z,0.72
2023-02-05T04:22:55.787Z,0.72
2023-02-05T04:23:55.764Z,0.71
2023-02-05T04:24:55.691Z,0.72
2023-02-05T04:25:55.667Z,0.71
2023-02-05T04:26:55.627Z,0.71
2023-02-05T04:27:55.636Z,0.71
2023-02-05T04:28:55.546Z,0.72
2023-02-05T04:29:55.507Z,0.71
2023-02-05T04:30:55.551Z,0.72
2023-02-05T04:31:55.478Z,0.72
2023-02-05T04:32:55.411Z,0.71
2023-02-05T04:33:55.389Z,0.71
2023-02-05T04:34:55.346Z,0.71
2023-02-05T04:35:55.346Z,0.71
2023-02-05T04:36:55.293Z,0.72
2023-02-05T04:37:55.249Z,0.71
2023-02-05T04:38:55.220Z,0.71
2023-02-05T04:39:55.185Z,0.71
2023-02-05T04:40:55.158Z,0.71
2023-02-05T04:41:55.122Z,0.71
2023-02-05T04:42:55.097Z,0.72
2023-02-05T04:43:55.054Z,0.73
2023-02-05T04:44:55.027Z,0.69
2023-02-05T04:45:54.992Z,0.71
2023-02-05T04:46:54.950Z,0.72
2023-02-05T04:47:54.924Z,0.70
2023-02-05T04:48:54.888Z,0.71
2023-02-05T04:49:54.854Z,0.72
2023-02-05T04:50:54.809Z,0.70
2023-02-05T04:51:54.765Z,0.70
2023-02-05T04:52:54.729Z,0.71
2023-02-05T04:53:54.697Z,0.71
2023-02-05T04:54:54.651Z,0.71
2023-02-05T04:55:54.598Z,0.71
2023-02-05T04:56:54.565Z,0.70
2023-02-05T04:57:54.527Z,0.72
2023-02-05T04:58:54.493Z,0.71
2023-02-05T04:59:54.463Z,0.69
2023-02-05T05:00:54.441Z,0.71
2023-02-05T05:01:54.392Z,0.71
2023-02-05T05:02:54.359Z,0.70
2023-02-05T05:03:54.321Z,0.70
2023-02-05T05:04:54.290Z,0.71
2023-02-05T05:05:54.241Z,0.71
2023-02-05T05:06:54.241Z,0.72
2023-02-05T05:07:54.182Z,0.69
2023-02-05T05:08:54.130Z,0.71
2023-02-05T05:09:54.095Z,0.69
2023-02-05T05:10:54.064Z,0.72
2023-02-05T05:11:54.070Z,0.70
2023-02-05T05:12:53.977Z,0.70
2023-02-05T05:13:53.937Z,0.70
2023-02-05T05:14:53.917Z,0.70
2023-02-05T05:15:53.909Z,0.71
2023-02-05T05:16:53.884Z,0.70
2023-02-05T05:17:53.804Z,0.70
2023-02-05T05:18:53.772Z,0.70
2023-02-05T05:19:53.743Z,0.68
2023-02-05T05:20:53.708Z,0.70
2023-02-05T05:21:53.675Z,0.70
2023-02-05T05:22:53.644Z,0.69
2023-02-05T05:23:53.607Z,0.71
2023-02-05T05:24:53.600Z,0.70
2023-02-05T05:25:53.535Z,0.70
2023-02-05T05:26:53.512Z,0.71
2023-02-05T05:27:53.487Z,0.70
2023-02-05T05:28:53.419Z,0.69
2023-02-05T05:29:53.388Z,0.70
2023-02-05T05:30:53.400Z,0.70
2023-02-05T05:31:53.352Z,0.70
2023-02-05T05:32:53.304Z,0.69
2023-02-05T05:33:53.244Z,0.70
2023-02-05T05:34:53.203Z,0.71
2023-02-05T05:35:53.165Z,0.70
2023-02-05T05:36:53.182Z,0.70
2023-02-05T05:37:53.099Z,0.71
2023-02-05T05:38:53.062Z,0.70
2023-02-05T05:39:53.019Z,0.69
2023-02-05T05:40:52.988Z,0.70
2023-02-05T05:41:52.944Z,0.69
2023-02-05T05:42:52.890Z,0.70
2023-02-05T05:43:52.851Z,0.70
2023-02-05T05:44:52.823Z,0.70
2023-02-05T05:45:52.830Z,0.70
2023-02-05T05:46:52.755Z,0.70
2023-02-05T05:47:52.716Z,0.70
2023-02-05T05:48:52.688Z,0.70
2023-02-05T05:49:52.636Z,0.70
2023-02-05T05:50:52.606Z,0.69
2023-02-05T05:51:52.562Z,0.70
2023-02-05T05:52:52.546Z,0.70
2023-02-05T05:53:52.495Z,0.69
2023-02-05T05:54:52.473Z,0.68
2023-02-05T05:55:52.430Z,0.70
2023-02-05T05:56:52.397Z,0.69
2023-02-05T05:57:52.363Z,0.69
2023-02-05T05:58:52.340Z,0.70
2023-02-05T05:59:52.308Z,0.69
2023-02-05T06:00:52.272Z,0.68
2023-02-05T06:01:52.236Z,0.68
2023-02-05T06:02:52.262Z,0.68
2023-02-05T06:03:52.176Z,0.69
2023-02-05T06:04:52.169Z,0.69
2023-02-05T06:05:52.114Z,0.69
2023-02-05T06:06:52.078Z,0.71
2023-02-05T06:07:52.048Z,0.69
2023-02-05T06:08:52.017Z,0.69
2023-02-05T06:09:51.974Z,0.70
2023-02-05T06:10:51.948Z,0.69
2023-02-05T06:11:51.906Z,0.68
2023-02-05T06:12:51.873Z,0.68
2023-02-05T06:13:51.838Z,0.70
2023-02-05T06:14:51.810Z,0.68
2023-02-05T06:15:51.799Z,0.70
2023-02-05T06:16:51.741Z,0.69
2023-02-05T06:17:51.701Z,0.70
2023-02-05T06:18:51.655Z,0.68
2023-02-05T06:19:51.608Z,0.69
2023-02-05T06:20:51.641Z,0.69
2023-02-05T06:21:51.544Z,0.69
2023-02-05T06:22:51.503Z,0.68
2023-02-05T06:23:51.483Z,0.68
2023-02-05T06:24:51.433Z,0.69
2023-02-05T06:25:51.384Z,0.69
2023-02-05T06:26:51.346Z,0.68
2023-02-05T06:27:51.319Z,0.67
2023-02-05T06:28:51.290Z,0.68
2023-02-05T06:29:51.240Z,0.68
2023-02-05T06:30:51.349Z,0.69
2023-02-05T06:31:51.324Z,0.69
2023-02-05T06:32:51.126Z,0.68
2023-02-05T06:33:51.088Z,0.69
2023-02-05T06:34:51.050Z,0.69
2023-02-05T06:35:51.013Z,0.68
2023-02-05T06:36:50.979Z,0.69
2023-02-05T06:37:50.932Z,0.67
2023-02-05T06:38:50.901Z,0.68
2023-02-05T06:39:50.862Z,0.68
2023-02-05T06:40:50.818Z,0.68
2023-02-05T06:41:50.778Z,0.68
2023-02-05T06:42:50.751Z,0.68
2023-02-05T06:43:50.719Z,0.67
2023-02-05T06:44:50.683Z,0.67
2023-02-05T06:45:50.666Z,0.68
2023-02-05T06:46:50.626Z,0.66
2023-02-05T06:47:50.564Z,0.68
2023-02-05T06:48:50.593Z,0.68
2023-02-05T06:49:50.488Z,0.68
2023-02-05T06:50:50.443Z,0.69
2023-02-05T06:51:50.412Z,0.67
2023-02-05T06:52:50.368Z,0.67
2023-02-05T06:53:50.340Z,0.67
2023-02-05T06:54:50.305Z,0.66
2023-02-05T06:55:50.272Z,0.68
2023-02-05T06:56:50.219Z,0.67
2023-02-05T06:57:50.196Z,0.68
2023-02-05T06:58:50.165Z,0.68
2023-02-05T06:59:50.126Z,0.67
2023-02-05T07:00:50.114Z,0.68
2023-02-05T07:01:50.094Z,0.68
2023-02-05T07:02:50.089Z,0.68
2023-02-05T07:03:49.999Z,0.68
2023-02-05T07:04:49.967Z,0.68
2023-02-05T07:05:49.948Z,0.67
2023-02-05T07:06:49.903Z,0.69
2023-02-05T07:07:50.079Z,0.68
2023-02-05T07:08:49.852Z,0.67
2023-02-05T07:09:49.813Z,0.67
2023-02-05T07:10:49.776Z,0.67
2023-02-05T07:11:49.756Z,0.67
2023-02-05T07:12:49.711Z,0.67
2023-02-05T07:13:49.687Z,0.68
2023-02-05T07:14:49.649Z,0.67
2023-02-05T07:15:49.703Z,0.68
2023-02-05T07:16:49.590Z,0.68
2023-02-05T07:17:49.549Z,0.68
2023-02-05T07:18:49.532Z,0.67
2023-02-05T07:19:49.521Z,0.67
2023-02-05T07:20:49.453Z,0.67
2023-02-05T07:21:49.422Z,0.67
2023-02-05T07:22:49.399Z,0.67
2023-02-05T07:23:49.365Z,0.67
2023-02-05T07:24:49.333Z,0.67
2023-02-05T07:25:49.297Z,0.66
2023-02-05T07:26:49.258Z,0.67
2023-02-05T07:27:49.277Z,0.66
2023-02-05T07:28:49.209Z,0.65
2023-02-05T07:29:49.182Z,0.66
2023-02-05T07:30:49.180Z,0.67
2023-02-05T07:31:49.139Z,0.66
2023-02-05T07:32:49.062Z,0.66
2023-02-05T07:33:49.029Z,0.66
2023-02-05T07:34:49.007Z,0.67
2023-02-05T07:35:48.978Z,0.67
2023-02-05T07:36:48.947Z,0.68
2023-02-05T07:37:48.915Z,0.66
2023-02-05T07:38:48.895Z,0.68
2023-02-05T07:39:48.897Z,0.65
2023-02-05T07:40:48.829Z,0.66
2023-02-05T07:41:48.807Z,0.67
2023-02-05T07:42:48.775Z,0.67
2023-02-05T07:43:48.742Z,0.65
2023-02-05T07:44:48.741Z,0.68
2023-02-05T07:45:48.685Z,0.67
2023-02-05T07:46:48.730Z,0.66
2023-02-05T07:47:48.623Z,0.66
2023-02-05T07:48:48.599Z,0.67
2023-02-05T07:49:48.566Z,0.67
2023-02-05T07:50:48.532Z,0.67
2023-02-05T07:51:48.497Z,0.67
2023-02-05T07:52:48.464Z,0.69
2023-02-05T07:53:48.444Z,0.66
2023-02-05T07:54:48.404Z,0.68
2023-02-05T07:55:48.370Z,0.67
2023-02-05T07:56:48.385Z,0.67
2023-02-05T07:57:48.294Z,0.67
2023-02-05T07:58:48.278Z,0.68
2023-02-05T07:59:48.247Z,0.67
2023-02-05T08:00:48.237Z,0.66
2023-02-05T08:01:48.180Z,0.68
2023-02-05T08:02:48.156Z,0.68
2023-02-05T08:03:48.114Z,0.68
2023-02-05T08:04:48.083Z,0.68
2023-02-05T08:05:48.048Z,0.67
2023-02-05T08:06:48.038Z,0.67
2023-02-05T08:07:47.984Z,0.66
2023-02-05T08:08:47.955Z,0.67
2023-02-05T08:09:47.921Z,0.68
2023-02-05T08:10:47.891Z,0.66
2023-02-05T08:11:47.856Z,0.65
2023-02-05T08:12:47.835Z,0.65
2023-02-05T08:13:47.836Z,0.66
2023-02-05T08:14:47.771Z,0.67
2023-02-05T08:15:47.722Z,0.68
2023-02-05T08:16:47.696Z,0.67
2023-02-05T08:17:47.673Z,0.65
2023-02-05T08:18:47.641Z,0.65
2023-02-05T08:19:47.677Z,0.67
2023-02-05T08:20:47.640Z,0.66
2023-02-05T08:21:47.542Z,0.65
2023-02-05T08:22:47.502Z,0.66
2023-02-05T08:23:47.474Z,0.67
2023-02-05T08:24:47.445Z,0.66
2023-02-05T08:25:47.414Z,0.65
2023-02-05T08:26:47.377Z,0.64
2023-02-05T08:27:47.372Z,0.66
2023-02-05T08:28:47.318Z,0.67
2023-02-05T08:29:47.287Z,0.66
2023-02-05T08:30:47.279Z,0.67
2023-02-05T08:31:47.254Z,0.66
2023-02-05T08:32:47.180Z,0.66
2023-02-05T08:33:47.134Z,0.67
2023-02-05T08:34:47.106Z,0.67
2023-02-05T08:35:47.074Z,0.67
2023-02-05T08:36:47.039Z,0.67
2023-02-05T08:37:46.993Z,0.67
2023-02-05T08:38:46.958Z,0.67
2023-02-05T08:39:46.924Z,0.66
2023-02-05T08:40:46.880Z,0.66
2023-02-05T08:41:46.844Z,0.66
2023-02-05T08:42:46.803Z,0.66
2023-02-05T08:43:46.770Z,0.67
2023-02-05T08:44:46.740Z,0.66
2023-02-05T08:45:46.719Z,0.66
2023-02-05T08:46:50.251Z,0.65
2023-02-05T08:47:46.608Z,0.65
2023-02-05T08:48:46.571Z,0.65
2023-02-05T08:49:46.530Z,0.66
2023-02-05T08:50:46.510Z,0.65
2023-02-05T08:51:46.490Z,0.66
2023-02-05T08:52:46.408Z,0.66
2023-02-05T08:53:46.367Z,0.67
2023-02-05T08:54:46.317Z,0.66
2023-02-05T08:55:46.336Z,0.66
2023-02-05T08:56:46.293Z,0.66
2023-02-05T08:57:46.202Z,0.67
2023-02-05T08:58:46.177Z,0.67
2023-02-05T08:59:46.124Z,0.66
2023-02-05T09:00:46.128Z,0.65
2023-02-05T09:01:46.051Z,0.66
2023-02-05T09:02:46.026Z,0.67
2023-02-05T09:03:45.976Z,0.66
2023-02-05T09:04:45.939Z,0.66
2023-02-05T09:05:45.916Z,0.66
2023-02-05T09:06:45.880Z,0.66
2023-02-05T09:07:45.855Z,0.66
2023-02-05T09:08:45.798Z,0.66
2023-02-05T09:09:45.757Z,0.66
2023-02-05T09:10:45.725Z,0.65
2023-02-05T09:11:45.699Z,0.65
2023-02-05T09:12:45.660Z,0.65
2023-02-05T09:13:45.628Z,0.65
2023-02-05T09:14:45.586Z,0.65
2023-02-05T09:15:47.786Z,0.66
2023-02-05T09:16:45.615Z,0.66
2023-02-05T09:17:45.485Z,0.67
2023-02-05T09:18:45.452Z,0.68
2023-02-05T09:19:45.416Z,0.66
2023-02-05T09:20:45.390Z,0.67
2023-02-05T09:21:45.335Z,0.66
2023-02-05T09:22:45.295Z,0.65
2023-02-05T09:23:45.271Z,0.67
2023-02-05T09:24:45.237Z,0.65
2023-02-05T09:25:45.208Z,0.65
2023-02-05T09:26:45.162Z,0.66
2023-02-05T09:27:45.152Z,0.67
2023-02-05T09:28:45.106Z,0.66
2023-02-05T09:29:45.076Z,0.66
2023-02-05T09:30:45.106Z,0.66
2023-02-05T09:31:45.095Z,0.67
2023-02-05T09:32:44.977Z,0.66
2023-02-05T09:33:46.440Z,0.66
2023-02-05T09:34:44.909Z,0.67
2023-02-05T09:35:44.890Z,0.65
2023-02-05T09:36:44.822Z,0.65
2023-02-05T09:37:44.793Z,0.66
2023-02-05T09:38:44.751Z,0.65
2023-02-05T09:40:19.011Z,0.65
2023-02-05T09:40:45.708Z,0.65
2023-02-05T09:41:44.655Z,0.66
2023-02-05T09:42:44.689Z,0.65
2023-02-05T09:43:44.583Z,0.65
2023-02-05T09:44:44.552Z,0.65
2023-02-05T09:45:44.538Z,0.64
2023-02-05T09:46:44.481Z,0.64
2023-02-05T09:47:44.439Z,0.65
2023-02-05T09:48:44.399Z,0.65
2023-02-05T09:49:44.356Z,0.65
2023-02-05T09:50:44.322Z,0.64
2023-02-05T09:51:44.288Z,0.66
2023-02-05T09:52:44.237Z,0.65
2023-02-05T09:53:44.205Z,0.65
2023-02-05T09:54:44.169Z,0.65
2023-02-05T09:55:44.125Z,0.65
2023-02-05T09:56:44.097Z,0.64
2023-02-05T09:57:44.055Z,0.64
2023-02-05T09:58:44.013Z,0.65
2023-02-05T09:59:43.971Z,0.65
2023-02-05T10:00:43.926Z,0.65
2023-02-05T10:01:43.927Z,0.66
2023-02-05T10:02:43.844Z,0.64
2023-02-05T10:03:43.806Z,0.64
2023-02-05T10:04:43.775Z,0.64
2023-02-05T10:05:43.710Z,0.66
2023-02-05T10:06:43.665Z,0.65
2023-02-05T10:07:43.639Z,0.64
2023-02-05T10:08:43.587Z,0.65
2023-02-05T10:09:43.542Z,0.66
2023-02-05T10:10:43.496Z,0.65
2023-02-05T10:11:43.469Z,0.64
2023-02-05T10:12:43.416Z,0.65
2023-02-05T10:13:43.372Z,0.64
2023-02-05T10:14:43.345Z,0.65
2023-02-05T10:15:43.339Z,0.66
2023-02-05T10:16:43.243Z,0.65
2023-02-05T10:17:43.200Z,0.66
2023-02-05T10:18:43.204Z,0.65
2023-02-05T10:19:43.115Z,0.65
2023-02-05T10:20:43.051Z,0.65
2023-02-05T10:21:43.003Z,0.66
2023-02-05T10:22:42.946Z,0.66
2023-02-05T10:23:42.900Z,0.66
2023-02-05T10:24:42.873Z,0.66
2023-02-05T10:25:45.451Z,0.65
2023-02-05T10:26:42.764Z,0.66
2023-02-05T10:27:42.737Z,0.66
2023-02-05T10:28:42.661Z,0.67
2023-02-05T10:29:42.613Z,0.66
2023-02-05T10:30:42.634Z,0.67
2023-02-05T10:31:42.582Z,0.66
2023-02-05T10:32:42.466Z,0.67
2023-02-05T10:33:42.421Z,0.66
2023-02-05T10:34:42.379Z,0.66
2023-02-05T10:35:42.316Z,0.67
2023-02-05T10:36:42.274Z,0.65
2023-02-05T10:37:42.210Z,0.66
2023-02-05T10:38:42.159Z,0.66
2023-02-05T10:39:42.109Z,0.67
2023-02-05T10:40:42.075Z,0.66
2023-02-05T10:41:42.010Z,0.66
2023-02-05T10:42:41.963Z,0.67
2023-02-05T10:43:41.910Z,0.67
2023-02-05T10:44:41.859Z,0.67
2023-02-05T10:45:41.809Z,0.67
2023-02-05T10:46:41.782Z,0.67
2023-02-05T10:47:41.696Z,0.67
2023-02-05T10:48:41.646Z,0.67
2023-02-05T10:49:41.580Z,0.68
2023-02-05T10:50:41.528Z,0.67
2023-02-05T10:51:41.484Z,0.67
2023-02-05T10:52:41.417Z,0.66
2023-02-05T10:53:41.361Z,0.66
2023-02-05T10:54:41.314Z,0.66
2023-02-05T10:55:41.253Z,0.66
2023-02-05T10:56:41.195Z,0.66
2023-02-05T10:57:41.163Z,0.66
2023-02-05T10:58:41.087Z,0.66
2023-02-05T10:59:41.043Z,0.66
2023-02-05T11:00:41.067Z,0.65
2023-02-05T11:01:40.961Z,0.65
2023-02-05T11:02:40.929Z,0.65
2023-02-05T11:03:40.832Z,0.65
2023-02-05T11:04:40.782Z,0.66
2023-02-05T11:05:40.723Z,0.66
2023-02-05T11:06:40.661Z,0.65
2023-02-05T11:07:40.621Z,0.66
2023-02-05T11:08:40.563Z,0.66
2023-02-05T11:09:40.512Z,0.66
2023-02-05T11:10:40.454Z,0.65
2023-02-05T11:11:40.398Z,0.66
2023-02-05T11:12:40.352Z,0.66
2023-02-05T11:13:40.323Z,0.66
2023-02-05T11:14:40.249Z,0.66
2023-02-05T11:15:40.216Z,0.66
2023-02-05T11:16:40.135Z,0.65
2023-02-05T11:17:40.093Z,0.66
2023-02-05T11:18:40.019Z,0.65
2023-02-05T11:19:39.962Z,0.67
2023-02-05T11:20:39.902Z,0.66
2023-02-05T11:21:39.852Z,0.65
2023-02-05T11:22:39.792Z,0.65
2023-02-05T11:23:39.759Z,0.65
2023-02-05T11:24:39.707Z,0.65
2023-02-05T11:25:39.626Z,0.64
2023-02-05T11:26:39.563Z,0.64
2023-02-05T11:27:39.524Z,0.65
2023-02-05T11:28:39.464Z,0.65
2023-02-05T11:29:39.403Z,0.64
2023-02-05T11:30:50.711Z,0.64
2023-02-05T11:31:40.340Z,0.64
2023-02-05T11:32:39.253Z,0.64
2023-02-05T11:33:39.194Z,0.65
2023-02-05T11:34:39.134Z,0.65
2023-02-05T11:35:39.096Z,0.65
2023-02-05T11:36:39.024Z,0.64
2023-02-05T11:37:38.980Z,0.64
2023-02-05T11:38:40.002Z,0.64
2023-02-05T11:39:38.860Z,0.64
2023-02-05T11:40:38.805Z,0.64
2023-02-05T11:41:38.753Z,0.64
2023-02-05T11:42:38.687Z,0.64
2023-02-05T11:43:38.633Z,0.64
2023-02-05T11:44:38.566Z,0.64
2023-02-05T11:45:38.524Z,0.64
2023-02-05T11:46:38.503Z,0.63
2023-02-05T11:47:38.404Z,0.64
2023-02-05T11:48:38.346Z,0.64
2023-02-05T11:49:38.290Z,0.63
2023-02-05T11:50:38.227Z,0.64
2023-02-05T11:51:38.191Z,0.63
2023-02-05T11:52:38.124Z,0.63
2023-02-05T11:53:38.068Z,0.64
2023-02-05T11:54:38.025Z,0.63
2023-02-05T11:55:37.962Z,0.63
2023-02-05T11:56:37.904Z,0.64
2023-02-05T11:57:37.927Z,0.62
2023-02-05T14:16:31.227Z,0.58
2023-02-05T14:20:31.049Z,0.59
2023-02-05T14:22:30.948Z,0.58
2023-02-05T14:23:30.903Z,0.57
2023-02-05T14:25:30.818Z,0.57
2023-02-05T14:26:30.784Z,0.58
2023-02-05T14:27:30.749Z,0.58
2023-02-05T14:28:30.707Z,0.58
2023-02-05T14:29:30.657Z,0.57
2023-02-05T14:30:30.711Z,0.58
2023-02-05T14:33:30.516Z,0.57
2023-02-05T14:34:30.458Z,0.58
2023-02-05T14:35:30.422Z,0.58
2023-02-05T14:36:30.378Z,0.57
2023-02-05T14:37:30.340Z,0.58
2023-02-05T14:38:30.296Z,0.58
2023-02-05T14:39:30.273Z,0.57
2023-02-05T14:40:30.212Z,0.58
2023-02-05T14:41:30.165Z,0.58
2023-02-05T14:42:30.132Z,0.58
2023-02-05T14:43:30.070Z,0.57
2023-02-05T14:44:30.038Z,0.56
2023-02-05T14:45:29.990Z,0.57
2023-02-05T14:46:30.009Z,0.57
2023-02-05T14:47:29.910Z,0.57
2023-02-05T14:48:29.870Z,0.58
2023-02-05T14:49:29.831Z,0.58
2023-02-05T14:50:29.786Z,0.57
2023-02-05T14:51:29.742Z,0.58
2023-02-05T14:52:29.709Z,0.57
2023-02-05T14:53:29.685Z,0.57
2023-02-05T14:54:29.610Z,0.56
2023-02-05T14:55:29.569Z,0.57
2023-02-05T14:56:29.528Z,0.58
2023-02-05T14:57:29.486Z,0.56
2023-02-05T14:58:29.438Z,0.57
2023-02-05T14:59:29.418Z,0.57
2023-02-05T15:00:29.365Z,0.57
2023-02-05T15:01:29.312Z,0.57
2023-02-05T15:02:29.311Z,0.58
2023-02-05T15:03:29.219Z,0.56
2023-02-05T15:04:29.193Z,0.56
2023-02-05T15:05:29.130Z,0.56
2023-02-05T15:06:29.092Z,0.58
2023-02-05T15:07:29.046Z,0.57
2023-02-05T15:08:29.005Z,0.56
2023-02-05T15:09:28.963Z,0.58
2023-02-05T15:10:28.924Z,0.57
2023-02-05T15:11:28.869Z,0.56
2023-02-05T15:12:28.886Z,0.57
2023-02-05T15:13:28.774Z,0.56
2023-02-05T15:14:28.737Z,0.59
2023-02-05T15:15:28.699Z,0.58
2023-02-05T15:16:28.649Z,0.56
2023-02-05T15:17:28.610Z,0.56
2023-02-05T15:18:28.563Z,0.57
2023-02-05T15:19:28.521Z,0.57
2023-02-05T15:20:28.476Z,0.57
2023-02-05T15:21:28.443Z,0.58
2023-02-05T15:22:28.403Z,0.58
2023-02-05T15:23:28.349Z,0.57
2023-02-05T15:24:28.310Z,0.56
2023-02-05T15:25:28.270Z,0.57
2023-02-05T15:26:28.245Z,0.57
2023-02-05T15:27:28.252Z,0.57
2023-02-05T15:28:28.141Z,0.57
2023-02-05T15:29:28.096Z,0.57
2023-02-05T15:30:28.118Z,0.57
2023-02-05T15:31:28.037Z,0.58
2023-02-05T15:32:27.990Z,0.56
2023-02-05T15:33:27.965Z,0.57
2023-02-05T15:34:27.934Z,0.58
2023-02-05T15:35:27.845Z,0.57
2023-02-05T15:37:27.762Z,0.58
2023-02-05T15:38:27.725Z,0.56
2023-02-05T15:39:27.681Z,0.57
2023-02-05T15:40:27.633Z,0.56
2023-02-05T15:42:27.556Z,0.56
2023-02-05T15:43:27.524Z,0.56
2023-02-05T15:44:27.459Z,0.56
2023-02-05T15:45:27.428Z,0.56
2023-02-05T15:46:27.419Z,0.57
2023-02-05T15:47:27.323Z,0.57
2023-02-05T15:48:27.305Z,0.56
2023-02-05T15:49:27.229Z,0.57
2023-02-05T15:50:27.199Z,0.57
2023-02-05T15:51:27.153Z,0.56
2023-02-05T15:52:27.101Z,0.57
2023-02-05T15:53:27.066Z,0.56
2023-02-05T15:54:27.035Z,0.56
2023-02-05T15:55:26.994Z,0.57
2023-02-05T15:56:26.947Z,0.57
2023-02-05T15:57:26.886Z,0.57
2023-02-05T15:58:26.846Z,0.56
2023-02-05T15:59:26.799Z,0.56
2023-02-05T16:00:26.755Z,0.56
2023-02-05T18:13:21.335Z,0.55
2023-02-05T18:14:21.292Z,0.55
2023-02-05T18:15:21.270Z,0.55
2023-02-05T18:16:21.251Z,0.55
2023-02-05T18:17:21.179Z,0.55
2023-02-05T18:18:21.119Z,0.56
2023-02-05T18:19:21.084Z,0.55
2023-02-05T18:20:21.094Z,0.56
2023-02-05T18:21:21.005Z,0.54
2023-02-05T18:22:20.962Z,0.56
2023-02-05T18:23:28.797Z,0.56
2023-02-05T18:24:21.890Z,0.56
2023-02-05T18:25:20.831Z,0.56
2023-02-05T18:26:20.794Z,0.56
2023-02-05T18:27:20.755Z,0.56
2023-02-05T18:28:20.720Z,0.55
2023-02-05T18:29:20.680Z,0.56
2023-02-05T18:30:20.666Z,0.56
2023-02-05T18:31:20.689Z,0.55
2023-02-05T18:32:20.565Z,0.56
2023-02-05T18:33:20.535Z,0.55
2023-02-05T18:34:20.492Z,0.56
2023-02-05T18:35:20.450Z,0.55
2023-02-05T18:36:20.429Z,0.55
2023-02-05T18:37:20.381Z,0.55
2023-02-05T18:38:20.346Z,0.56
2023-02-05T18:39:20.317Z,0.54
2023-02-05T18:40:20.271Z,0.54
2023-02-05T18:41:20.240Z,0.55
2023-02-05T18:42:20.207Z,0.55
2023-02-05T18:43:20.169Z,0.54
2023-02-05T18:44:20.125Z,0.55
2023-02-05T18:45:20.111Z,0.55
2023-02-05T18:46:20.187Z,0.56
2023-02-05T18:47:20.024Z,0.54
2023-02-05T18:48:20.008Z,0.55
2023-02-05T18:49:19.957Z,0.54
2023-02-05T18:50:19.954Z,0.55
2023-02-05T18:51:19.899Z,0.56
2023-02-05T18:52:19.855Z,0.55
2023-02-05T18:53:19.802Z,0.56
2023-02-05T18:54:19.765Z,0.55
2023-02-05T18:55:19.730Z,0.55
2023-02-05T18:56:19.713Z,0.55
2023-02-05T18:57:19.665Z,0.54
2023-02-05T18:58:19.613Z,0.55
2023-02-05T18:59:19.602Z,0.55
2023-02-05T19:00:19.555Z,0.54
2023-02-05T19:01:19.573Z,0.55
2023-02-05T19:02:19.468Z,0.55
2023-02-05T19:03:19.494Z,0.54
2023-02-05T19:04:19.401Z,0.54
2023-02-05T19:05:19.372Z,0.56
2023-02-05T19:06:19.358Z,0.56
2023-02-05T19:07:19.317Z,0.55
2023-02-05T19:08:19.250Z,0.54
2023-02-05T19:09:19.219Z,0.55
2023-02-05T19:10:19.171Z,0.55
2023-02-05T19:11:19.140Z,0.55
2023-02-05T19:12:19.116Z,0.55
2023-02-05T19:13:19.072Z,0.54
2023-02-05T19:14:19.020Z,0.54
2023-02-05T19:15:18.985Z,0.55
2023-02-05T19:16:18.936Z,0.54
2023-02-05T19:17:18.916Z,0.54
2023-02-05T19:18:18.894Z,0.54
2023-02-05T19:19:18.879Z,0.54
2023-02-05T19:20:18.790Z,0.54
2023-02-05T19:21:18.757Z,0.54
2023-02-05T19:22:18.708Z,0.55
2023-02-05T19:23:18.671Z,0.55
2023-02-05T19:24:18.642Z,0.55
2023-02-05T19:25:18.590Z,0.55
2023-02-05T19:26:18.550Z,0.54
2023-02-05T19:27:18.514Z,0.55
2023-02-05T19:28:18.633Z,0.55
2023-02-05T19:29:18.434Z,0.54
2023-02-05T19:30:18.394Z,0.55
2023-02-05T19:31:18.479Z,0.55
2023-02-05T19:32:18.308Z,0.55
2023-02-05T19:33:18.260Z,0.55
2023-02-05T19:34:19.156Z,0.55
2023-02-05T19:35:18.181Z,0.55
2023-02-05T19:36:18.143Z,0.54
2023-02-05T19:37:18.106Z,0.55
2023-02-05T19:38:18.067Z,0.55
2023-02-05T19:39:18.035Z,0.54
2023-02-05T19:40:18.004Z,0.54
2023-02-05T19:41:17.955Z,0.55
2023-02-05T19:42:17.923Z,0.55
2023-02-05T19:43:17.909Z,0.55
2023-02-05T19:44:17.840Z,0.55
2023-02-05T23:20:09.601Z,0.54
2023-02-05T23:21:09.577Z,0.53
2023-02-05T23:22:09.579Z,0.53
2023-02-05T23:23:09.490Z,0.53
2023-02-05T23:24:09.462Z,0.54
2023-02-05T23:25:09.420Z,0.52
2023-02-05T23:26:09.372Z,0.54
2023-02-05T23:27:09.329Z,0.52
2023-02-05T23:28:09.374Z,0.53
2023-02-05T23:29:09.240Z,0.54
2023-02-05T23:30:09.243Z,0.54
2023-02-05T23:31:09.318Z,0.54
2023-02-05T23:32:09.129Z,0.54
2023-02-05T23:33:09.112Z,0.54
2023-02-05T23:34:09.054Z,0.53
2023-02-05T23:35:09.003Z,0.54
2023-02-05T23:36:08.979Z,0.53
2023-02-05T23:37:08.933Z,0.54
2023-02-05T23:38:08.899Z,0.53
2023-02-05T23:39:08.874Z,0.54
2023-02-05T23:40:08.818Z,0.53
2023-02-05T23:41:08.787Z,0.53
2023-02-05T23:42:08.741Z,0.52
2023-02-05T23:43:08.702Z,0.53
2023-02-05T23:44:08.668Z,0.53
2023-02-05T23:45:08.629Z,0.54
2023-02-05T23:46:08.655Z,0.53
2023-02-05T23:48:08.502Z,0.53
2023-02-05T23:49:08.451Z,0.54
2023-02-05T23:50:08.413Z,0.52
2023-02-05T23:51:08.391Z,0.53
2023-02-05T23:52:08.340Z,0.54
2023-02-05T23:53:08.298Z,0.53
2023-02-05T23:54:08.263Z,0.53
2023-02-05T23:55:08.221Z,0.54
2023-02-05T23:56:08.176Z,0.54
2023-02-05T23:57:08.116Z,0.54
2023-02-05T23:58:08.091Z,0.53
2023-02-05T23:59:08.051Z,0.53
